Time;durP1;ratioP1;P1;durP2;ratioP2;P2;SDS_P1;SDS_P2;PMS_P1;PMS_P2;Temp;Humidity;BMP_temperature;BMP_pressure;BME280_temperature;BME280_humidity;BME280_pressure;Samples;Min_cycle;Max_cycle;Signal;HPM_P1;HPM_P2
2022/03/07 00:01:44;;;;;;;;;41.00;31.75;;;;;3.92;54.25;101996.50;5038073;28;45510;-68
2022/03/07 00:04:09;;;;;;;;;52.50;45.00;;;;;3.91;53.70;101994.75;5037971;28;47174;-69
2022/03/07 00:06:35;;;;;;;;;51.00;42.25;;;;;3.87;54.58;101987.81;5039263;28;45370;-69
2022/03/07 00:09:00;;;;;;;;;59.33;47.00;;;;;3.85;54.80;101994.66;5038922;28;45488;-70
2022/03/07 00:11:25;;;;;;;;;61.67;43.67;;;;;3.83;55.17;101986.03;5039125;28;45453;-70
2022/03/07 00:13:51;;;;;;;;;62.75;50.50;;;;;3.81;54.92;101982.56;5038908;28;45336;-70
2022/03/07 00:16:17;;;;;;;;;56.75;41.25;;;;;3.78;55.65;101979.91;5039299;28;45262;-70
2022/03/07 00:18:42;;;;;;;;;67.50;49.75;;;;;3.75;55.28;101991.84;5039214;28;45239;-70
2022/03/07 00:21:08;;;;;;;;;63.50;44.50;;;;;3.75;54.34;101987.56;5037482;28;45529;-70
2022/03/07 00:23:34;;;;;;;;;51.50;40.25;;;;;3.74;54.88;101990.09;5038570;28;46129;-69
2022/03/07 00:25:59;;;;;;;;;70.75;50.75;;;;;3.72;54.95;101987.50;5037647;28;45246;-68
2022/03/07 00:28:25;;;;;;;;;57.00;41.50;;;;;3.71;55.64;101995.19;5048087;28;45294;-68
2022/03/07 00:30:50;;;;;;;;;42.75;34.00;;;;;3.69;54.45;101990.03;5038977;28;45425;-77
2022/03/07 00:33:16;;;;;;;;;49.33;41.67;;;;;3.67;56.71;102007.13;5035329;28;46089;-77
2022/03/07 00:35:42;;;;;;;;;50.50;38.00;;;;;3.63;56.41;101995.03;5036644;28;45427;-77
2022/03/07 00:38:08;;;;;;;;;60.25;41.00;;;;;3.61;56.43;101989.00;5039210;28;45351;-69
2022/03/07 00:40:33;;;;;;;;;39.00;37.75;;;;;3.61;55.54;101995.00;5039506;28;45304;-69
2022/03/07 00:42:59;;;;;;;;;55.00;43.50;;;;;3.56;56.04;101985.44;5039298;28;45351;-69
2022/03/07 00:45:24;;;;;;;;;69.00;47.00;;;;;3.57;55.57;101987.19;5039667;28;45399;-70
2022/03/07 00:47:49;;;;;;;;;58.75;46.75;;;;;3.57;56.83;101987.19;5038830;28;45312;-67
2022/03/07 00:50:15;;;;;;;;;63.50;44.75;;;;;3.54;55.62;101981.97;5039549;28;45259;-67
2022/03/07 00:52:40;;;;;;;;;46.25;38.50;;;;;3.50;56.46;101987.91;5038830;28;45401;-67
2022/03/07 00:55:06;;;;;;;;;56.75;42.75;;;;;3.51;56.22;101984.50;5039459;28;45287;-69
2022/03/07 00:57:32;;;;;;;;;54.50;43.50;;;;;3.51;55.94;101989.63;5039386;28;45309;-68
2022/03/07 00:59:57;;;;;;;;;54.25;43.25;;;;;3.50;55.96;101995.59;5039394;28;45220;-73
2022/03/07 01:02:22;;;;;;;;;52.67;40.67;;;;;3.49;56.09;101994.75;5038986;28;45255;-73
2022/03/07 01:04:48;;;;;;;;;41.25;34.50;;;;;3.44;56.36;101985.22;5039194;28;45221;-73
2022/03/07 01:07:14;;;;;;;;;56.75;38.75;;;;;3.43;55.55;101986.91;5037330;28;45335;-72
2022/03/07 01:09:39;;;;;;;;;52.75;36.50;;;;;3.41;55.43;101990.28;5039108;28;45478;-72
2022/03/07 01:12:05;;;;;;;;;56.67;44.33;;;;;3.40;55.97;101993.66;5037077;28;46177;-72
2022/03/07 01:14:30;;;;;;;;;57.00;42.25;;;;;3.34;55.47;101989.25;5028495;28;45338;-72
2022/03/07 01:16:56;;;;;;;;;50.50;39.50;;;;;3.36;56.38;101996.16;5057941;28;45526;-72
2022/03/07 01:19:21;;;;;;;;;46.75;39.75;;;;;3.30;56.71;101985.75;5039226;28;45571;-69
2022/03/07 01:21:46;;;;;;;;;52.25;43.75;;;;;3.31;56.32;101991.75;5037418;28;47190;-74
2022/03/07 01:24:12;;;;;;;;;40.00;37.50;;;;;3.30;56.60;101992.59;5038778;28;45351;-73
2022/03/07 01:26:38;;;;;;;;;52.75;39.25;;;;;3.27;55.83;101988.25;5040981;28;45540;-73
2022/03/07 01:29:04;;;;;;;;;51.00;41.25;;;;;3.25;56.63;101984.78;5041151;28;45287;-73
2022/03/07 01:31:30;;;;;;;;;56.00;46.75;;;;;3.24;56.30;101984.75;5042132;28;45512;-73
2022/03/07 01:33:55;;;;;;;;;59.50;38.00;;;;;3.16;56.82;101976.88;5042468;28;45440;-72
2022/03/07 01:36:20;;;;;;;;;52.25;43.00;;;;;3.15;57.89;101972.56;5042449;28;45552;-73
2022/03/07 01:38:46;;;;;;;;;35.00;29.00;;;;;3.12;56.67;101977.63;5042024;28;45531;-69
2022/03/07 01:41:12;;;;;;;;;46.00;39.50;;;;;3.11;57.60;101973.34;5042092;28;45245;-69
2022/03/07 01:43:37;;;;;;;;;48.00;34.25;;;;;3.06;57.33;101977.50;5042289;28;45159;-69
2022/03/07 01:46:03;;;;;;;;;52.00;40.75;;;;;3.02;56.78;101965.44;5041911;28;45862;-69
2022/03/07 01:48:28;;;;;;;;;36.75;30.25;;;;;3.02;57.14;101973.13;5040544;28;45825;-67
2022/03/07 01:50:54;;;;;;;;;54.50;46.00;;;;;3.01;56.74;101971.41;5042000;28;45291;-69
2022/03/07 01:53:21;;;;;;;;;49.50;33.00;;;;;2.97;57.45;101964.44;5041732;28;45331;-69
2022/03/07 01:55:46;;;;;;;;;40.75;33.75;;;;;2.96;57.18;101970.41;5039643;28;45367;-69
2022/03/07 01:58:12;;;;;;;;;31.00;29.25;;;;;2.93;56.78;101966.06;5039448;28;45528;-69
2022/03/07 02:00:39;;;;;;;;;45.00;38.75;;;;;2.89;57.05;101958.28;5039272;28;46378;-68
2022/03/07 02:03:05;;;;;;;;;37.00;27.75;;;;;2.91;57.83;101961.75;5039588;28;45415;-69
2022/03/07 02:05:31;;;;;;;;;37.50;32.25;;;;;2.88;57.43;101959.97;5039436;28;45600;-68
2022/03/07 02:07:57;;;;;;;;;58.50;43.00;;;;;2.87;57.31;101960.81;5039021;28;45331;-68
2022/03/07 02:10:26;;;;;;;;;43.50;37.00;;;;;2.87;57.50;101958.22;5057897;28;47458;-68
2022/03/07 02:12:52;;;;;;;;;49.75;38.50;;;;;2.85;57.89;101954.75;5030594;28;45486;-68
2022/03/07 02:15:17;;;;;;;;;46.33;38.33;;;;;2.86;57.42;101956.50;5035640;28;45454;-68
2022/03/07 02:17:47;;;;;;;;;41.00;32.25;;;;;2.86;57.47;101960.78;5037774;28;45453;-69
2022/03/07 02:20:13;;;;;;;;;47.75;38.50;;;;;2.87;57.79;101957.38;5037228;28;45791;-69
2022/03/07 02:22:39;;;;;;;;;62.25;41.75;;;;;2.87;57.37;101955.66;5037121;28;45845;-69
2022/03/07 02:25:05;;;;;;;;;48.75;35.25;;;;;2.86;58.12;101951.38;5037616;28;45467;-68
2022/03/07 02:27:32;;;;;;;;;49.00;34.75;;;;;2.86;57.97;101945.38;5038685;28;45422;-68
2022/03/07 02:29:59;;;;;;;;;41.00;33.00;;;;;2.86;58.15;101940.22;5038745;28;45330;-69
2022/03/07 02:32:26;;;;;;;;;63.25;40.00;;;;;2.84;57.58;101944.47;5038887;28;45375;-69
2022/03/07 02:34:51;;;;;;;;;45.25;37.00;;;;;2.83;57.47;101943.59;5038818;28;45354;-69
2022/03/07 02:37:17;;;;;;;;;38.50;30.25;;;;;2.80;57.73;101930.66;5038601;28;45517;-68
2022/03/07 02:39:43;;;;;;;;;43.00;35.00;;;;;2.77;57.85;101927.16;5040719;28;45354;-69
2022/03/07 02:42:08;;;;;;;;;54.75;41.50;;;;;2.74;57.69;101928.84;5041299;28;45299;-67
2022/03/07 02:44:33;;;;;;;;;56.75;43.00;;;;;2.72;57.53;101925.38;5041285;28;45851;-67
2022/03/07 02:46:59;;;;;;;;;53.75;39.75;;;;;2.66;58.94;101924.38;5040663;28;45218;-67
2022/03/07 02:49:24;;;;;;;;;38.50;34.50;;;;;2.68;57.96;101923.56;5040984;28;46273;-70
2022/03/07 02:51:50;;;;;;;;;46.75;36.00;;;;;2.66;57.19;101921.78;5041187;28;45524;-73
2022/03/07 02:54:15;;;;;;;;;49.75;42.00;;;;;2.64;57.29;101918.34;5059499;28;45727;-73
2022/03/07 02:56:41;;;;;;;;;29.00;29.00;;;;;2.61;57.51;101916.56;5041263;28;45428;-69
2022/03/07 02:59:06;;;;;;;;;43.00;31.00;;;;;2.59;58.02;101917.31;5040829;28;45248;-68
2022/03/07 03:01:31;;;;;;;;;49.75;32.00;;;;;2.57;58.34;101914.72;5040927;28;45355;-68
2022/03/07 03:03:57;;;;;;;;;47.00;37.25;;;;;2.58;58.34;101913.91;5040707;28;45385;-75
2022/03/07 03:06:22;;;;;;;;;34.75;34.00;;;;;2.56;58.06;101912.13;5041016;28;45367;-72
2022/03/07 03:08:48;;;;;;;;;36.75;32.50;;;;;2.55;57.80;101918.09;5040160;28;46519;-71
2022/03/07 03:11:13;;;;;;;;;49.25;40.50;;;;;2.53;58.09;101917.19;5036287;28;45691;-73
2022/03/07 03:13:39;;;;;;;;;38.75;35.25;;;;;2.48;57.99;101914.53;5037058;28;45296;-73
2022/03/07 03:16:05;;;;;;;;;43.25;34.25;;;;;2.44;58.71;101910.16;5039851;28;45444;-73
2022/03/07 03:18:30;;;;;;;;;48.00;37.00;;;;;2.44;58.41;101918.72;5038045;28;47970;-73
2022/03/07 03:20:55;;;;;;;;;36.00;29.00;;;;;2.37;59.36;101910.81;5038346;28;45565;-71
2022/03/07 03:23:22;;;;;;;;;41.50;34.00;;;;;2.34;58.96;101900.47;5037897;28;45363;-72
2022/03/07 03:25:48;;;;;;;;;40.25;34.00;;;;;2.30;60.05;101907.22;5038220;28;45557;-72
2022/03/07 03:28:14;;;;;;;;;44.50;37.25;;;;;2.32;59.73;101912.41;5037862;28;45707;-72
2022/03/07 03:30:39;;;;;;;;;48.25;34.25;;;;;2.32;58.62;101902.13;5039359;28;45335;-73
2022/03/07 03:33:04;;;;;;;;;34.25;28.00;;;;;2.30;60.72;101909.81;5038195;28;45600;-73
2022/03/07 03:35:30;;;;;;;;;34.00;22.25;;;;;2.26;58.98;101912.25;5054220;28;45706;-68
2022/03/07 03:37:56;;;;;;;;;53.25;43.00;;;;;2.24;58.73;101911.34;5038079;28;46439;-69
2022/03/07 03:40:22;;;;;;;;;46.50;35.50;;;;;2.17;61.38;101905.19;5038050;28;45425;-69
2022/03/07 03:42:47;;;;;;;;;37.00;35.50;;;;;2.17;59.76;101909.44;5037926;28;45630;-69
2022/03/07 03:45:13;;;;;;;;;33.25;25.00;;;;;2.12;59.48;101907.63;5036388;28;45478;-69
2022/03/07 03:47:40;;;;;;;;;49.50;35.50;;;;;2.11;59.55;101916.16;5036493;28;45666;-67
2022/03/07 03:50:09;;;;;;;;;46.25;36.75;;;;;2.08;60.02;101913.50;5037764;28;45422;-66
2022/03/07 03:52:35;;;;;;;;;45.25;36.25;;;;;2.08;59.54;101917.78;5037429;28;45707;-67
2022/03/07 03:55:02;;;;;;;;;46.25;32.75;;;;;2.05;59.55;101912.56;5037722;28;45716;-67
2022/03/07 03:57:28;;;;;;;;;45.00;39.00;;;;;2.04;59.55;101919.41;5037571;28;45623;-68
2022/03/07 03:59:54;;;;;;;;;50.25;32.75;;;;;2.03;59.75;101919.38;5037590;28;45559;-76
2022/03/07 04:02:19;;;;;;;;;47.50;33.00;;;;;1.99;59.70;101912.38;5037754;28;45346;-68
2022/03/07 04:04:45;;;;;;;;;61.25;43.00;;;;;1.95;59.59;101908.88;5037461;28;45340;-72
2022/03/07 04:07:10;;;;;;;;;60.50;42.25;;;;;1.94;60.56;101919.97;5038354;28;46378;-71
2022/03/07 04:09:35;;;;;;;;;34.00;26.33;;;;;1.91;60.19;101919.88;5039695;28;45174;-72
2022/03/07 04:12:01;;;;;;;;;45.25;32.00;;;;;1.90;59.68;101914.72;5038112;28;45263;-76
2022/03/07 04:14:26;;;;;;;;;26.75;24.00;;;;;1.91;59.54;101916.47;5030170;28;45146;-72
2022/03/07 04:16:52;;;;;;;;;42.75;31.25;;;;;1.89;59.95;101907.88;5039111;28;45976;-71
2022/03/07 04:19:18;;;;;;;;;49.00;31.00;;;;;1.89;60.10;101907.88;5038975;28;45641;-68
2022/03/07 04:21:43;;;;;;;;;40.50;27.25;;;;;1.88;60.20;101916.38;5039193;28;45260;-68
2022/03/07 04:24:10;;;;;;;;;48.50;38.50;;;;;1.86;60.13;101912.91;5038666;28;45601;-70
2022/03/07 04:26:36;;;;;;;;;52.25;39.50;;;;;1.86;60.96;101913.78;5037436;28;47259;-73
2022/03/07 04:29:05;;;;;;;;;50.50;42.75;;;;;1.82;61.29;101914.53;5054357;28;45672;-78
2022/03/07 04:31:31;;;;;;;;;40.25;30.25;;;;;1.82;60.76;101917.97;5037865;28;45526;-77
2022/03/07 04:33:56;;;;;;;;;61.50;39.00;;;;;1.84;60.49;101918.00;5037215;28;45241;-80
2022/03/07 04:36:22;;;;;;;;;35.00;25.00;;;;;1.85;60.83;101917.19;5041535;28;45271;-79
2022/03/07 04:38:48;;;;;;;;;51.50;43.25;;;;;1.82;59.88;101917.97;5037209;28;45234;-77
2022/03/07 04:41:14;;;;;;;;;44.75;37.00;;;;;1.83;60.45;101921.41;5038942;28;45489;-76
2022/03/07 04:43:39;;;;;;;;;40.75;33.50;;;;;1.82;60.93;101924.78;5038953;28;45233;-77
2022/03/07 04:46:07;;;;;;;;;35.25;27.50;;;;;1.78;61.80;101926.38;5037000;28;47076;-76
2022/03/07 04:48:33;;;;;;;;;41.75;36.75;;;;;1.74;61.68;101916.88;5038598;28;45470;-78
2022/03/07 04:50:58;;;;;;;;;51.50;38.50;;;;;1.75;61.61;101925.41;5038998;28;45355;-76
2022/03/07 04:53:24;;;;;;;;;53.50;37.50;;;;;1.71;61.52;101921.91;5038599;28;45264;-76
2022/03/07 04:55:50;;;;;;;;;48.75;43.00;;;;;1.73;61.46;101934.75;5038649;28;46039;-77
2022/03/07 04:58:15;;;;;;;;;33.25;26.00;;;;;1.70;62.11;101930.44;5038825;28;45307;-75
2022/03/07 05:00:40;;;;;;;;;33.50;25.75;;;;;1.67;61.38;101927.78;5042253;28;45434;-72
2022/03/07 05:03:06;;;;;;;;;44.75;39.75;;;;;1.66;61.49;101918.38;5040884;28;45243;-74
2022/03/07 05:05:31;;;;;;;;;44.33;37.00;;;;;1.65;61.21;101926.88;5040731;28;47950;-74
2022/03/07 05:07:56;;;;;;;;;47.25;38.75;;;;;1.63;62.48;101932.78;5041676;28;45285;-76
2022/03/07 05:10:22;;;;;;;;;35.25;32.50;;;;;1.59;61.78;101930.94;5044091;28;45481;-76
2022/03/07 05:12:48;;;;;;;;;40.75;35.25;;;;;1.58;61.76;101926.66;5042611;28;45255;-71
2022/03/07 05:15:14;;;;;;;;;48.00;36.00;;;;;1.56;61.19;101923.16;5042446;28;46521;-66
2022/03/07 05:17:44;;;;;;;;;41.50;37.75;;;;;1.53;61.40;101929.94;5041340;28;45415;-66
2022/03/07 05:20:11;;;;;;;;;46.50;33.25;;;;;1.51;61.42;101929.03;5042287;28;45386;-70
2022/03/07 05:22:38;;;;;;;;;49.25;40.75;;;;;1.49;62.88;101924.69;5041127;28;46640;-71
2022/03/07 05:25:06;;;;;;;;;45.50;34.50;;;;;1.50;62.24;101929.00;5054312;28;47479;-71
2022/03/07 05:27:31;;;;;;;;;50.25;36.00;;;;;1.49;63.30;101928.13;5033739;28;45327;-68
2022/03/07 05:29:56;;;;;;;;;40.50;34.00;;;;;1.49;62.25;101920.44;5042148;28;45276;-67
2022/03/07 05:32:22;;;;;;;;;37.75;31.25;;;;;1.47;61.73;101921.22;5042369;28;45496;-67
2022/03/07 05:34:47;;;;;;;;;45.25;34.25;;;;;1.48;62.54;101926.41;5041998;28;46199;-72
2022/03/07 05:37:13;;;;;;;;;58.00;45.00;;;;;1.51;62.10;101928.19;5041870;28;45342;-67
2022/03/07 05:39:39;;;;;;;;;44.25;37.75;;;;;1.50;61.38;101923.88;5041968;28;45326;-67
2022/03/07 05:42:04;;;;;;;;;45.25;39.75;;;;;1.50;61.76;101918.75;5042218;28;45457;-67
2022/03/07 05:44:30;;;;;;;;;43.50;41.75;;;;;1.51;62.13;101929.03;5041910;28;45314;-67
2022/03/07 05:46:55;;;;;;;;;47.25;39.50;;;;;1.50;61.78;101927.31;5041408;28;45253;-68
2022/03/07 05:49:20;;;;;;;;;46.00;36.00;;;;;1.48;61.95;101928.09;5041835;28;45220;-68
2022/03/07 05:51:46;;;;;;;;;42.75;33.50;;;;;1.45;62.48;101934.00;5041684;28;45246;-67
2022/03/07 05:54:11;;;;;;;;;25.50;24.00;;;;;1.46;62.43;101929.75;5041293;28;46069;-67
2022/03/07 05:56:37;;;;;;;;;53.25;38.50;;;;;1.43;62.01;101929.66;5041745;28;45251;-78
2022/03/07 05:59:02;;;;;;;;;47.50;38.00;;;;;1.43;62.60;101935.66;5041936;28;45301;-80
2022/03/07 06:01:28;;;;;;;;;49.75;36.50;;;;;1.46;62.19;101938.28;5040940;28;45355;-82
2022/03/07 06:03:53;;;;;;;;;44.50;32.75;;;;;1.46;62.64;101935.72;5041303;28;46055;-72
2022/03/07 06:06:19;;;;;;;;;41.50;39.75;;;;;1.42;62.90;101926.22;5057062;28;46035;-69
2022/03/07 06:08:44;;;;;;;;;37.50;29.50;;;;;1.45;62.05;101940.81;5041296;28;45141;-69
2022/03/07 06:11:09;;;;;;;;;50.00;42.75;;;;;1.41;62.88;101941.56;5041086;28;45237;-69
2022/03/07 06:13:35;;;;;;;;;41.00;37.00;;;;;1.39;62.31;101940.63;5029122;28;46142;-73
2022/03/07 06:16:00;;;;;;;;;40.75;34.00;;;;;1.35;62.38;101937.09;5041048;28;45264;-73
2022/03/07 06:18:26;;;;;;;;;49.25;38.00;;;;;1.31;62.53;101940.41;5039427;28;45333;-73
2022/03/07 06:20:51;;;;;;;;;24.50;16.75;;;;;1.30;62.70;101943.78;5056348;28;45300;-73
2022/03/07 06:23:16;;;;;;;;;50.75;39.75;;;;;1.28;62.40;101942.88;5038527;28;46852;-73
2022/03/07 06:25:42;;;;;;;;;43.50;37.50;;;;;1.30;63.56;101942.91;5041202;28;45461;-77
2022/03/07 06:28:09;;;;;;;;;37.00;32.50;;;;;1.30;63.32;101945.47;5040727;28;45497;-77
2022/03/07 06:30:34;;;;;;;;;37.50;33.75;;;;;1.32;63.38;101941.28;5040827;28;45279;-77
2022/03/07 06:32:59;;;;;;;;;42.00;32.00;;;;;1.33;62.67;101943.00;5040158;28;45332;-73
2022/03/07 06:35:25;;;;;;;;;46.75;31.50;;;;;1.33;62.77;101935.31;5040946;28;45236;-73
2022/03/07 06:37:52;;;;;;;;;51.00;37.25;;;;;1.33;62.56;101932.75;5040354;28;45245;-67
2022/03/07 06:40:19;;;;;;;;;40.25;32.00;;;;;1.39;62.89;101949.16;5040430;28;45339;-68
2022/03/07 06:42:46;;;;;;;;;37.75;33.00;;;;;1.40;62.91;101950.94;5040327;28;45338;-69
2022/03/07 06:45:13;;;;;;;;;42.00;34.50;;;;;1.41;63.15;101951.81;5035082;28;45868;-71
2022/03/07 06:47:39;;;;;;;;;39.00;34.00;;;;;1.43;63.87;101956.13;5032571;28;45539;-71
2022/03/07 06:50:05;;;;;;;;;34.75;23.50;;;;;1.42;63.63;101959.53;5039826;28;45530;-71
2022/03/07 06:52:31;;;;;;;;;30.50;22.75;;;;;1.41;62.95;101947.53;5054688;28;48067;-72
2022/03/07 06:54:56;;;;;;;;;45.75;39.00;;;;;1.42;62.71;101958.66;5040422;28;45320;-74
2022/03/07 06:57:22;;;;;;;;;52.25;42.50;;;;;1.43;62.57;101958.69;5039419;28;45690;-68
2022/03/07 06:59:48;;;;;;;;;43.25;36.75;;;;;1.45;62.63;101951.94;5040520;28;45466;-71
2022/03/07 07:02:13;;;;;;;;;46.00;42.50;;;;;1.48;62.83;101954.56;5037972;28;48077;-68
2022/03/07 07:04:39;;;;;;;;;58.25;36.00;;;;;1.54;62.50;101943.63;5052466;28;45263;-72
2022/03/07 07:07:04;;;;;;;;;43.00;37.00;;;;;1.59;62.71;101956.56;5034857;28;45446;-73
2022/03/07 07:09:29;;;;;;;;;42.00;35.00;;;;;1.62;62.78;101942.16;5040322;28;45425;-73
2022/03/07 07:11:55;;;;;;;;;41.50;38.00;;;;;1.72;62.51;101956.09;5038992;28;46553;-72
2022/03/07 07:14:20;;;;;;;;;46.50;35.75;;;;;1.77;62.45;101957.09;5061299;28;45363;-72
2022/03/07 07:16:45;;;;;;;;;40.50;35.00;;;;;1.83;62.04;101957.28;5040300;28;45615;-71
2022/03/07 07:19:11;;;;;;;;;45.75;34.00;;;;;1.88;62.17;101957.41;5040594;28;45465;-66
2022/03/07 07:21:36;;;;;;;;;48.67;39.33;;;;;1.92;61.88;101952.38;5039007;28;45343;-67
2022/03/07 07:24:02;;;;;;;;;48.75;38.75;;;;;2.00;62.04;101953.47;5039968;28;45340;-72
2022/03/07 07:26:28;;;;;;;;;41.50;35.25;;;;;2.00;61.87;101943.22;5040624;28;45415;-63
2022/03/07 07:28:53;;;;;;;;;40.00;37.75;;;;;2.04;61.28;101955.28;5039948;28;45540;-69
2022/03/07 07:31:19;;;;;;;;;36.50;28.00;;;;;2.06;61.28;101953.63;5040015;28;45420;-69
2022/03/07 07:33:44;;;;;;;;;38.75;28.50;;;;;2.11;61.22;101952.06;5038705;28;45316;-69
2022/03/07 07:36:10;;;;;;;;;51.50;42.00;;;;;2.14;61.08;101946.13;5040299;28;45328;-69
2022/03/07 07:38:35;;;;;;;;;49.50;36.25;;;;;2.24;61.27;101952.38;5039616;28;45422;-70
2022/03/07 07:41:00;;;;;;;;;38.50;30.75;;;;;2.28;60.84;101959.31;5039905;28;46566;-70
2022/03/07 07:43:26;;;;;;;;;57.50;34.75;;;;;2.33;61.16;101968.88;5039852;28;45229;-69
2022/03/07 07:45:51;;;;;;;;;51.25;42.50;;;;;2.40;61.03;101963.09;5039580;28;45228;-70
2022/03/07 07:48:16;;;;;;;;;53.50;43.00;;;;;2.46;60.45;101959.78;5039527;28;45692;-68
2022/03/07 07:50:42;;;;;;;;;47.00;36.00;;;;;2.50;60.41;101959.03;5037804;28;46422;-68
2022/03/07 07:53:07;;;;;;;;;43.67;38.33;;;;;2.61;60.17;101959.31;5038854;28;45278;-68
2022/03/07 07:55:32;;;;;;;;;39.50;37.25;;;;;2.66;59.92;101952.59;5038919;28;45312;-68
2022/03/07 07:57:58;;;;;;;;;41.50;36.25;;;;;2.78;59.55;101952.00;5039139;28;45219;-68
2022/03/07 08:00:23;;;;;;;;;44.25;34.50;;;;;2.82;59.49;101948.69;5039477;28;46361;-67
2022/03/07 08:02:50;;;;;;;;;50.00;37.00;;;;;2.87;59.88;101940.25;5039968;28;45303;-68
2022/03/07 08:05:17;;;;;;;;;40.50;31.25;;;;;2.93;58.63;101942.97;5039780;28;45427;-69
2022/03/07 08:07:43;;;;;;;;;48.00;38.00;;;;;3.00;59.11;101946.53;5038989;28;45334;-69
2022/03/07 08:10:10;;;;;;;;;45.25;38.75;;;;;3.05;59.16;101952.66;5039411;28;45328;-70
2022/03/07 08:12:35;;;;;;;;;52.50;42.50;;;;;3.15;59.03;101943.44;5039403;28;45261;-69
2022/03/07 08:15:01;;;;;;;;;47.00;29.00;;;;;3.21;58.26;101949.59;5039633;28;45256;-69
2022/03/07 08:17:26;;;;;;;;;35.75;34.00;;;;;3.30;57.51;101954.06;5039644;28;45399;-68
2022/03/07 08:19:52;;;;;;;;;57.33;38.00;;;;;3.39;57.38;101950.81;5039374;28;46639;-69
2022/03/07 08:22:17;;;;;;;;;45.25;40.75;;;;;3.49;57.44;101955.31;5039190;28;45209;-70
2022/03/07 08:24:43;;;;;;;;;54.75;35.25;;;;;3.56;56.18;101950.34;5037871;28;45748;-69
2022/03/07 08:27:08;;;;;;;;;39.75;33.50;;;;;3.58;57.59;101952.94;5039575;28;45241;-69
2022/03/07 08:29:34;;;;;;;;;46.75;37.25;;;;;3.63;56.50;101947.06;5039282;28;45918;-73
2022/03/07 08:31:59;;;;;;;;;44.75;36.25;;;;;3.67;56.55;101948.88;5039381;28;45397;-70
2022/03/07 08:34:24;;;;;;;;;48.25;41.25;;;;;3.75;55.84;101940.41;5039151;28;45470;-71
2022/03/07 08:36:50;;;;;;;;;59.50;39.50;;;;;3.76;55.89;101942.16;5039232;28;45245;-73
2022/03/07 08:39:15;;;;;;;;;51.50;37.50;;;;;3.79;54.83;101917.38;5039052;28;46476;-70
2022/03/07 08:41:40;;;;;;;;;40.75;35.25;;;;;3.81;56.19;101931.16;5039273;28;45410;-69
2022/03/07 08:44:06;;;;;;;;;46.00;40.25;;;;;3.92;54.93;101923.63;5039401;28;45244;-70
2022/03/07 08:46:31;;;;;;;;;41.50;32.25;;;;;4.01;55.13;101922.94;5038361;28;45454;-70
2022/03/07 08:48:56;;;;;;;;;42.50;30.00;;;;;4.03;54.66;101921.25;5038704;28;46220;-72
2022/03/07 08:51:22;;;;;;;;;38.00;32.25;;;;;4.06;54.93;101917.03;5039093;28;45367;-70
2022/03/07 08:53:47;;;;;;;;;49.00;43.50;;;;;4.15;54.91;101937.75;5038995;28;45327;-73
2022/03/07 08:56:13;;;;;;;;;64.00;42.00;;;;;4.21;54.38;101926.75;5038863;28;45335;-70
2022/03/07 08:58:39;;;;;;;;;45.00;30.75;;;;;4.31;54.06;101930.31;5038869;28;46084;-71
2022/03/07 09:01:05;;;;;;;;;32.00;29.00;;;;;4.36;52.67;101929.56;5039011;28;45405;-71
2022/03/07 09:03:30;;;;;;;;;49.00;37.50;;;;;4.39;52.36;101932.16;5039129;28;45231;-70
2022/03/07 09:05:56;;;;;;;;;43.00;34.75;;;;;4.45;52.11;101916.84;5037671;28;45234;-72
2022/03/07 09:08:21;;;;;;;;;56.00;42.25;;;;;4.55;52.95;101925.56;5038574;28;46436;-72
2022/03/07 09:10:47;;;;;;;;;42.50;29.50;;;;;4.69;53.08;101920.66;5038866;28;45304;-70
2022/03/07 09:13:12;;;;;;;;;59.50;39.75;;;;;4.72;51.92;101915.56;5027865;28;45236;-71
2022/03/07 09:15:37;;;;;;;;;33.25;25.00;;;;;4.70;51.47;101914.66;5038497;28;45215;-70
2022/03/07 09:18:03;;;;;;;;;37.50;30.50;;;;;4.72;51.75;101925.84;5039032;28;46023;-70
2022/03/07 09:20:28;;;;;;;;;46.75;40.50;;;;;4.76;52.25;101910.47;5038779;28;45279;-71
2022/03/07 09:22:54;;;;;;;;;43.00;37.75;;;;;4.78;51.71;101915.63;5037349;28;45282;-69
2022/03/07 09:25:19;;;;;;;;;54.25;41.25;;;;;4.85;51.67;101910.63;5038845;28;45410;-70
2022/03/07 09:27:45;;;;;;;;;38.50;28.75;;;;;4.95;51.63;101908.16;5038905;28;45244;-67
2022/03/07 09:30:12;;;;;;;;;51.00;37.75;;;;;4.98;50.96;101910.78;5038738;28;45350;-72
2022/03/07 09:32:39;;;;;;;;;37.25;33.75;;;;;5.02;51.22;101907.41;5039044;28;45364;-69
2022/03/07 09:35:05;;;;;;;;;41.50;39.00;;;;;5.13;51.29;101914.44;5038673;28;45403;-69
2022/03/07 09:37:30;;;;;;;;;39.75;34.50;;;;;5.28;51.37;101924.09;5038327;28;45573;-69
2022/03/07 09:39:56;;;;;;;;;42.50;36.75;;;;;5.43;50.54;101920.84;5068905;28;45240;-68
2022/03/07 09:42:21;;;;;;;;;47.00;37.25;;;;;5.58;50.21;101915.00;5038909;28;45205;-70
2022/03/07 09:44:47;;;;;;;;;42.50;32.50;;;;;5.67;50.02;101913.41;5039222;28;45240;-70
2022/03/07 09:47:14;;;;;;;;;43.75;39.75;;;;;5.77;49.66;101916.94;5040395;28;47181;-73
2022/03/07 09:49:40;;;;;;;;;45.00;38.50;;;;;5.88;49.48;101906.75;5041815;28;45220;-73
2022/03/07 09:52:05;;;;;;;;;42.50;34.25;;;;;5.91;50.49;101909.38;5041229;28;45494;-72
2022/03/07 09:54:31;;;;;;;;;44.50;36.00;;;;;5.89;48.77;101911.06;5041186;28;45625;-72
2022/03/07 09:56:56;;;;;;;;;46.00;33.75;;;;;5.91;49.22;101902.50;5041140;28;45371;-71
2022/03/07 09:59:22;;;;;;;;;48.75;37.75;;;;;5.98;49.73;101908.59;5041007;28;45391;-70
2022/03/07 10:02:00;;;;;;;;;52.75;37.75;;;;;6.05;47.84;101908.69;5038611;28;45331;-71
2022/03/07 10:04:26;;;;;;;;;39.50;34.75;;;;;6.07;47.96;101900.97;5041094;28;45617;-69
2022/03/07 10:06:51;;;;;;;;;51.00;41.00;;;;;6.19;48.45;101898.47;5041010;28;46157;-69
2022/03/07 10:09:25;;;;;;;;;50.50;41.50;;;;;6.36;47.65;101896.91;5041660;28;45366;-68
2022/03/07 10:12:00;;;;;;;;;39.25;36.75;;;;;6.43;45.88;101891.81;5041590;28;45209;-70
2022/03/07 10:14:41;;;;;;;;;36.75;30.25;;;;;6.49;46.54;101894.44;5031588;28;45314;-70
2022/03/07 10:17:17;;;;;;;;;42.50;34.75;;;;;7.03;46.76;101895.69;5040031;28;47088;-69
2022/03/07 10:19:44;;;;;;;;;46.00;37.00;;;;;8.23;45.36;101885.69;5041354;28;45776;-68
2022/03/07 10:22:23;;;;;;;;;51.50;39.50;;;;;8.78;44.55;101878.75;5041299;28;45281;-68
2022/03/07 10:25:05;;;;;;;;;44.25;37.25;;;;;8.72;43.57;101883.09;5041323;28;45274;-68
2022/03/07 10:27:37;;;;;;;;;42.75;38.00;;;;;8.55;43.54;101877.94;5042087;28;45372;-69
2022/03/07 10:30:04;;;;;;;;;47.50;40.50;;;;;8.90;43.99;101872.69;5039882;28;45302;-69
2022/03/07 10:32:29;;;;;;;;;39.00;35.25;;;;;10.26;42.67;101870.28;5041698;28;45350;-68
2022/03/07 10:34:55;;;;;;;;;44.75;36.50;;;;;11.26;41.96;101873.63;5041163;28;45297;-70
2022/03/07 10:37:40;;;;;;;;;31.50;29.75;;;;;11.33;35.03;101868.31;5041269;28;45355;-70
2022/03/07 10:40:18;;;;;;;;;44.00;34.00;;;;;11.25;39.01;101866.69;5073018;28;45438;-73
2022/03/07 10:42:46;;;;;;;;;51.25;38.75;;;;;12.05;39.17;101869.09;5041280;28;45307;-74
2022/03/07 10:45:12;;;;;;;;;45.00;37.00;;;;;11.93;37.34;101861.44;5041248;28;45354;-74
2022/03/07 10:47:37;;;;;;;;;53.00;35.75;;;;;11.37;37.97;101862.19;5040248;28;45513;-72
2022/03/07 10:50:04;;;;;;;;;50.50;37.50;;;;;11.03;38.90;101870.44;5040809;28;45257;-75
2022/03/07 10:52:41;;;;;;;;;42.00;34.75;;;;;10.82;38.49;101855.06;5040409;28;45263;-71
2022/03/07 10:55:09;;;;;;;;;42.50;38.25;;;;;10.66;38.38;101857.81;5039383;28;45266;-68
2022/03/07 10:57:40;;;;;;;;;42.00;34.25;;;;;10.39;38.41;101849.38;5039346;28;47498;-72
2022/03/07 11:00:18;;;;;;;;;37.75;32.00;;;;;12.01;39.76;101858.72;5040627;28;45243;-69
2022/03/07 11:02:50;;;;;;;;;42.25;36.25;;;;;12.10;35.74;101849.00;5036304;28;45416;-69
2022/03/07 11:05:17;;;;;;;;;32.25;29.25;;;;;11.33;32.99;101857.91;5032749;28;45248;-72
2022/03/07 11:07:49;;;;;;;;;39.00;32.00;;;;;11.03;36.18;101854.81;5065518;28;47292;-72
2022/03/07 11:10:16;;;;;;;;;44.00;29.75;;;;;11.98;34.14;101840.53;5034290;28;45327;-68
2022/03/07 11:12:42;;;;;;;;;49.75;34.50;;;;;11.56;34.69;101845.44;5040010;28;45189;-64